Duck Valley, Nevada
Current Conditions -  °F | °C
As of 8:08 AM on Friday 21 Nov 2014 (Local Time) from KMUO Reporting Station
Haze Haze  
Wind Chill: 21°   Ceiling: Unl
Heat Index: 21°   Visibility: 1.5mi
Dew Point: 21°   Wind: 3mph
Humidity: 100%   Direction: 70°ENE
Pressure: 30.07"   Gusts: NA
Location:  41.9458°N, 116.094°W
Report Text: KMUO 211608Z 07003KT 1 1/2SM BR SCT075 M06/M06 A3007 RMK AO2A VIS SE-SW 3/4
Loading
Personal Weather Stations






























Interactive Weather Map New forecast layout! Learn more

10-Day Weather Forecast

Advertisements
Track Severe Weather on mobile